Aplington, Iowa
Current Conditions -  °F | °C
As of 10:15 AM on Thursday 30 Oct 2014 (Local Time) from KIFA Reporting Station
Broken Clouds Broken Clouds  
Wind Chill: 45°   Ceiling: 5500
Heat Index: 45°   Visibility: 10mi
Dew Point: 38°   Wind: 3mph
Humidity: 77%   Direction: 130°SE
Pressure: 30.05"   Gusts: NA
Location:  42.58°N, 92.88°W
Report Text: KIFA 301515Z AUTO 13003KT 10SM BKN055 07/03 A3005 RMK AO2 T00720034
Loading
Personal Weather Stations






























Interactive Weather Map
Tropical Storm Tracking
New forecast layout! Learn more

10-Day Weather Forecast

Advertisements
Track Severe Weather on mobile